Time;durP1;ratioP1;P1;durP2;ratioP2;P2;SDS_P1;SDS_P2;PMS_P1;PMS_P2;Temp;Humidity;BMP_temperature;BMP_pressure;BME280_temperature;BME280_humidity;BME280_pressure;Samples;Min_cycle;Max_cycle;Signal;HPM_P1;HPM_P2
2021/03/21 00:01:35;;;;;;;10.70;5.72;;;4.60;83.90;;;;;;5038758;28;20044;-74
2021/03/21 00:04:01;;;;;;;10.45;5.95;;;4.60;84.40;;;;;;5027666;28;20029;-72
2021/03/21 00:06:27;;;;;;;11.48;5.85;;;4.60;84.40;;;;;;5037472;28;20037;-74
2021/03/21 00:08:52;;;;;;;8.23;5.82;;;4.60;84.20;;;;;;5037002;28;20415;-71
2021/03/21 00:11:18;;;;;;;12.38;5.60;;;4.60;83.90;;;;;;5036382;28;20018;-73
2021/03/21 00:13:44;;;;;;;17.45;7.15;;;4.50;84.00;;;;;;5031545;28;20404;-73
2021/03/21 00:16:10;;;;;;;11.85;5.90;;;4.50;84.40;;;;;;5027017;28;20033;-74
2021/03/21 00:18:39;;;;;;;11.82;5.97;;;4.50;84.60;;;;;;5037012;28;20033;-72
2021/03/21 00:21:06;;;;;;;12.65;6.75;;;4.40;85.20;;;;;;5038540;28;20021;-73
2021/03/21 00:23:32;;;;;;;16.98;6.93;;;4.40;86.20;;;;;;5031826;28;20022;-74
2021/03/21 00:25:58;;;;;;;14.45;6.57;;;4.40;85.60;;;;;;5037803;28;20539;-73
2021/03/21 00:28:28;;;;;;;13.50;6.53;;;4.40;85.60;;;;;;5037697;28;20104;-72
2021/03/21 00:30:54;;;;;;;12.40;6.28;;;4.40;86.10;;;;;;5038553;28;20033;-73
2021/03/21 00:33:23;;;;;;;12.13;6.82;;;4.30;86.30;;;;;;5037682;28;20477;-72
2021/03/21 00:35:51;;;;;;;13.88;6.63;;;4.30;86.90;;;;;;5038424;28;20024;-73
2021/03/21 00:38:20;;;;;;;13.30;6.95;;;4.30;87.10;;;;;;5036808;28;20578;-73
2021/03/21 00:40:45;;;;;;;13.93;7.75;;;4.30;87.40;;;;;;5036000;28;20025;-73
2021/03/21 00:43:11;;;;;;;11.93;7.03;;;4.30;87.60;;;;;;5037439;28;20052;-74
2021/03/21 00:45:37;;;;;;;13.45;7.78;;;4.30;88.10;;;;;;5017340;28;20054;-73
2021/03/21 00:48:03;;;;;;;17.77;8.48;;;4.20;88.20;;;;;;5029187;28;20507;-72
2021/03/21 00:50:32;;;;;;;17.45;7.88;;;4.20;88.80;;;;;;5035225;28;20051;-72
2021/03/21 00:52:58;;;;;;;16.13;7.88;;;4.20;89.00;;;;;;5026101;28;20104;-72
2021/03/21 00:55:24;;;;;;;18.63;8.88;;;4.20;89.20;;;;;;5029375;28;20056;-72
2021/03/21 00:57:50;;;;;;;19.50;8.63;;;4.20;89.30;;;;;;5031904;28;20025;-72
2021/03/21 01:00:22;;;;;;;17.65;9.73;;;4.20;89.50;;;;;;5020774;28;20033;-73
2021/03/21 01:02:48;;;;;;;19.58;9.25;;;4.20;90.00;;;;;;5030285;28;20041;-74
2021/03/21 01:05:36;;;;;;;19.77;9.48;;;4.10;90.10;;;;;;5025368;28;20059;-72
2021/03/21 01:08:05;;;;;;;16.42;9.85;;;4.10;90.10;;;;;;5030752;28;20119;-73
2021/03/21 01:10:35;;;;;;;18.00;9.93;;;4.10;90.10;;;;;;5033139;28;20156;-71
2021/03/21 01:13:02;;;;;;;15.48;9.10;;;4.10;90.20;;;;;;5031419;28;20030;-72
2021/03/21 01:15:29;;;;;;;18.60;10.60;;;4.10;90.30;;;;;;5020874;28;20596;-73
2021/03/21 01:17:56;;;;;;;23.13;10.38;;;4.10;90.30;;;;;;5026843;28;20022;-74
2021/03/21 01:20:26;;;;;;;20.67;10.15;;;4.10;90.40;;;;;;5030081;28;20049;-74
2021/03/21 01:22:51;;;;;;;20.15;10.00;;;4.10;90.40;;;;;;5030038;28;20041;-72
2021/03/21 01:25:23;;;;;;;22.38;11.45;;;4.00;90.30;;;;;;5032834;28;20035;-72
2021/03/21 01:27:49;;;;;;;21.75;11.00;;;4.10;90.50;;;;;;5033862;28;20041;-73
2021/03/21 01:30:16;;;;;;;19.13;10.65;;;4.10;90.50;;;;;;5034159;28;20051;-73
2021/03/21 01:32:42;;;;;;;17.65;10.50;;;4.10;90.60;;;;;;5034127;28;20022;-73
2021/03/21 01:35:09;;;;;;;21.15;10.85;;;4.00;90.70;;;;;;5021725;28;20028;-72
2021/03/21 01:37:35;;;;;;;23.38;11.65;;;4.10;90.70;;;;;;5032937;28;20037;-73
2021/03/21 01:40:01;;;;;;;18.45;11.00;;;4.10;90.70;;;;;;5033943;28;20041;-73
2021/03/21 01:42:38;;;;;;;18.20;10.43;;;4.10;90.60;;;;;;5034037;28;20435;-73
2021/03/21 01:45:42;;;;;;;16.35;10.07;;;4.00;90.50;;;;;;5023194;28;20430;-72
2021/03/21 01:48:46;;;;;;;17.83;10.10;;;4.00;90.50;;;;;;5028622;28;20555;-73
2021/03/21 01:51:17;;;;;;;15.50;9.65;;;4.00;90.50;;;;;;4972727;28;20082;-72
2021/03/21 01:53:45;;;;;;;19.27;11.10;;;4.00;90.40;;;;;;4964310;28;20055;-72
2021/03/21 01:56:12;;;;;;;22.80;10.30;;;4.00;90.40;;;;;;4972372;28;20042;-73
2021/03/21 01:58:42;;;;;;;20.15;11.20;;;4.00;90.30;;;;;;4970951;28;20041;-73
2021/03/21 02:01:14;;;;;;;20.33;10.43;;;4.00;90.20;;;;;;4972675;28;20030;-73
2021/03/21 02:03:40;;;;;;;22.17;11.43;;;4.00;90.20;;;;;;4964274;28;20031;-72
2021/03/21 02:06:14;;;;;;;17.50;9.95;;;3.90;90.20;;;;;;4968118;28;20098;-73
2021/03/21 02:08:52;;;;;;;18.05;10.50;;;3.90;90.40;;;;;;4972809;28;20026;-72
2021/03/21 02:11:38;;;;;;;22.15;10.63;;;3.90;90.40;;;;;;4963057;28;20484;-73
2021/03/21 02:14:16;;;;;;;23.50;11.60;;;3.90;90.60;;;;;;4956169;28;20023;-74
2021/03/21 02:17:05;;;;;;;18.15;11.25;;;3.80;90.60;;;;;;4964472;28;20031;-71
2021/03/21 02:20:09;;;;;;;21.40;10.95;;;3.80;90.70;;;;;;4935408;28;20030;-72
2021/03/21 02:22:58;;;;;;;20.15;11.60;;;3.70;90.70;;;;;;4951604;28;20050;-73
2021/03/21 02:25:45;;;;;;;19.73;11.63;;;3.70;90.80;;;;;;5006164;28;20037;-71
2021/03/21 02:28:34;;;;;;;21.70;11.60;;;3.70;90.80;;;;;;5032718;28;20034;-72
2021/03/21 02:31:05;;;;;;;21.58;11.88;;;3.60;90.80;;;;;;5002408;28;20038;-73
2021/03/21 02:34:01;;;;;;;21.10;12.13;;;3.60;90.90;;;;;;5032909;28;20025;-72
2021/03/21 02:36:42;;;;;;;23.25;12.35;;;3.60;91.00;;;;;;5033129;28;20021;-72
2021/03/21 02:39:10;;;;;;;22.88;12.02;;;3.50;91.10;;;;;;5032878;28;20033;-71
2021/03/21 02:41:44;;;;;;;24.55;12.68;;;3.50;91.20;;;;;;5032536;28;20030;-71
2021/03/21 02:44:25;;;;;;;31.85;13.23;;;3.40;91.30;;;;;;5027475;28;20030;-71
2021/03/21 02:46:56;;;;;;;21.75;12.55;;;3.40;91.40;;;;;;5026785;28;20079;-73
2021/03/21 02:49:27;;;;;;;22.52;13.43;;;3.40;91.50;;;;;;5032604;28;20036;-74
2021/03/21 02:51:58;;;;;;;24.92;13.27;;;3.40;91.60;;;;;;5029857;28;20032;-73
2021/03/21 02:54:32;;;;;;;23.85;13.35;;;3.30;91.60;;;;;;5021421;28;20615;-72
2021/03/21 02:57:09;;;;;;;25.77;13.35;;;3.30;91.50;;;;;;5032220;28;20032;-71
2021/03/21 02:59:43;;;;;;;25.65;14.70;;;3.30;91.70;;;;;;5029933;28;20029;-71
2021/03/21 03:02:15;;;;;;;26.17;14.27;;;3.30;91.80;;;;;;5031249;28;20582;-73
2021/03/21 03:04:47;;;;;;;21.45;14.07;;;3.30;91.80;;;;;;5020758;28;20114;-73
2021/03/21 03:07:21;;;;;;;21.67;14.27;;;3.20;91.80;;;;;;5029423;28;20037;-73
2021/03/21 03:09:52;;;;;;;25.45;14.48;;;3.20;91.80;;;;;;5032219;28;20026;-73
2021/03/21 03:12:34;;;;;;;26.42;14.95;;;3.20;92.00;;;;;;5028033;28;20033;-73
2021/03/21 03:15:12;;;;;;;27.65;14.75;;;3.10;92.00;;;;;;5006008;28;20025;-71
2021/03/21 03:17:40;;;;;;;26.38;15.45;;;3.10;92.00;;;;;;5031911;28;20029;-73
2021/03/21 03:20:15;;;;;;;24.75;14.73;;;3.10;92.10;;;;;;5032332;28;20037;-72
2021/03/21 03:22:48;;;;;;;29.23;15.43;;;3.10;92.10;;;;;;5028211;28;20037;-73
2021/03/21 03:25:20;;;;;;;27.15;15.45;;;3.10;92.20;;;;;;5030594;28;20034;-71
2021/03/21 03:28:13;;;;;;;24.45;14.98;;;3.10;92.20;;;;;;5031172;28;20044;-73
2021/03/21 03:30:39;;;;;;;23.98;15.45;;;3.00;92.20;;;;;;5032457;28;20022;-73
2021/03/21 03:33:08;;;;;;;32.05;16.13;;;3.00;92.30;;;;;;5032071;28;20021;-71
2021/03/21 03:35:34;;;;;;;28.15;15.32;;;3.00;92.30;;;;;;5032107;28;20033;-71
2021/03/21 03:38:01;;;;;;;25.20;16.13;;;3.00;92.40;;;;;;5030684;28;20021;-73
2021/03/21 03:40:26;;;;;;;28.77;16.48;;;3.00;92.40;;;;;;5032107;28;20132;-73
2021/03/21 03:43:02;;;;;;;30.05;16.45;;;3.00;92.40;;;;;;5032465;28;20445;-73
2021/03/21 03:45:35;;;;;;;30.45;16.27;;;2.90;92.40;;;;;;5018286;28;20072;-73
2021/03/21 03:48:16;;;;;;;27.08;15.73;;;2.90;92.50;;;;;;5025431;28;20034;-72
2021/03/21 03:50:48;;;;;;;24.85;14.93;;;2.90;92.40;;;;;;5031787;28;20032;-71
2021/03/21 03:53:16;;;;;;;30.65;16.25;;;2.90;92.40;;;;;;5021999;28;20045;-73
2021/03/21 03:56:05;;;;;;;25.88;15.73;;;2.90;92.50;;;;;;5027115;28;20029;-71
2021/03/21 03:59:13;;;;;;;26.75;15.77;;;2.90;92.50;;;;;;5026311;28;20577;-73
2021/03/21 04:02:04;;;;;;;27.58;15.95;;;2.90;92.40;;;;;;5030216;28;20462;-72
2021/03/21 04:04:48;;;;;;;28.13;15.77;;;2.90;92.40;;;;;;5022354;28;20077;-73
2021/03/21 04:07:36;;;;;;;25.83;15.40;;;2.90;92.40;;;;;;5028117;28;20034;-73
2021/03/21 04:10:07;;;;;;;32.65;16.13;;;2.90;92.40;;;;;;5023714;28;20034;-73
2021/03/21 04:13:02;;;;;;;25.85;16.52;;;2.80;92.40;;;;;;5024411;28;20048;-71
2021/03/21 04:15:32;;;;;;;29.25;16.17;;;2.80;92.40;;;;;;5011419;28;20072;-71
2021/03/21 04:18:12;;;;;;;30.35;16.77;;;2.80;92.40;;;;;;5031919;28;20026;-73
2021/03/21 04:21:07;;;;;;;28.85;16.85;;;2.80;92.50;;;;;;5035427;28;20486;-71
2021/03/21 04:23:38;;;;;;;30.15;17.00;;;2.70;92.40;;;;;;4990119;28;20062;-73
2021/03/21 04:26:13;;;;;;;26.10;16.90;;;2.70;92.40;;;;;;5018495;28;20040;-71
2021/03/21 04:28:43;;;;;;;27.17;17.05;;;2.70;92.60;;;;;;5035225;28;20479;-71
2021/03/21 04:31:13;;;;;;;32.25;17.48;;;2.70;92.70;;;;;;5035294;28;20025;-71
2021/03/21 04:33:48;;;;;;;31.92;18.05;;;2.60;92.70;;;;;;5032890;28;20034;-73
2021/03/21 04:36:28;;;;;;;32.83;18.13;;;2.60;92.70;;;;;;5034467;28;20025;-73
2021/03/21 04:39:07;;;;;;;34.08;19.00;;;2.60;92.60;;;;;;5033157;28;20029;-73
2021/03/21 04:41:53;;;;;;;32.15;18.35;;;2.60;92.70;;;;;;5034790;28;20129;-73
2021/03/21 04:44:29;;;;;;;29.92;18.20;;;2.50;92.70;;;;;;5028694;28;20034;-73
2021/03/21 04:47:00;;;;;;;28.50;18.15;;;2.50;92.70;;;;;;5026122;28;20053;-73
2021/03/21 04:49:25;;;;;;;30.33;17.63;;;2.50;92.70;;;;;;5034861;28;20036;-71
2021/03/21 04:52:27;;;;;;;30.63;18.83;;;2.50;92.80;;;;;;5032419;28;20033;-71
2021/03/21 04:54:55;;;;;;;28.92;17.27;;;2.50;92.90;;;;;;5028302;28;20026;-73
2021/03/21 04:57:38;;;;;;;35.25;17.65;;;2.50;92.90;;;;;;5034393;28;20033;-73
2021/03/21 05:00:12;;;;;;;42.95;18.90;;;2.40;92.90;;;;;;5032283;28;20374;-73
2021/03/21 05:02:42;;;;;;;35.38;18.58;;;2.40;92.90;;;;;;5034452;28;20030;-72
2021/03/21 05:05:20;;;;;;;36.85;19.05;;;2.40;93.00;;;;;;5023886;28;20034;-71
2021/03/21 05:07:52;;;;;;;33.55;19.90;;;2.40;93.00;;;;;;5032103;28;20101;-72
2021/03/21 05:10:33;;;;;;;35.97;18.13;;;2.40;93.00;;;;;;5034313;28;20028;-73
2021/03/21 05:13:16;;;;;;;31.73;17.95;;;2.40;93.00;;;;;;5028369;28;20022;-73
2021/03/21 05:15:44;;;;;;;28.73;18.15;;;2.40;92.90;;;;;;5020866;28;20026;-73
2021/03/21 05:18:23;;;;;;;30.75;18.48;;;2.40;92.90;;;;;;5033132;28;20038;-73
2021/03/21 05:21:06;;;;;;;33.53;18.73;;;2.30;92.90;;;;;;5032029;28;20029;-73
2021/03/21 05:24:01;;;;;;;35.83;20.00;;;2.30;93.00;;;;;;5029349;28;20025;-71
2021/03/21 05:26:56;;;;;;;32.40;19.88;;;2.30;93.10;;;;;;5017394;28;20041;-71
2021/03/21 05:29:39;;;;;;;32.17;19.40;;;2.30;93.20;;;;;;5012864;28;20424;-71
2021/03/21 05:32:10;;;;;;;34.45;18.90;;;2.30;93.20;;;;;;5032460;28;20029;-71
2021/03/21 05:34:36;;;;;;;35.50;20.08;;;2.30;93.20;;;;;;5032481;28;20026;-71
2021/03/21 05:37:10;;;;;;;37.70;20.52;;;2.30;93.20;;;;;;5034223;28;20025;-71
2021/03/21 05:39:42;;;;;;;33.63;19.77;;;2.40;93.20;;;;;;5034155;28;20064;-71
2021/03/21 05:42:46;;;;;;;34.55;20.08;;;2.30;93.20;;;;;;5033889;28;20504;-71
2021/03/21 05:45:24;;;;;;;;;;;2.40;93.30;;;;;;5025541;28;20528;-71
2021/03/21 05:48:24;;;;;;;38.15;21.05;;;2.40;93.10;;;;;;5028220;28;20323;-71
2021/03/21 05:51:17;;;;;;;37.35;19.25;;;2.40;92.90;;;;;;5033557;28;20049;-73
2021/03/21 05:54:19;;;;;;;33.13;19.98;;;2.40;92.90;;;;;;5016211;28;20059;-71
2021/03/21 05:56:58;;;;;;;42.92;22.00;;;2.30;92.90;;;;;;5030885;28;20056;-71
2021/03/21 05:59:57;;;;;;;35.10;20.90;;;2.30;93.10;;;;;;5031890;28;20108;-73
2021/03/21 06:02:44;;;;;;;36.28;20.08;;;2.40;93.10;;;;;;5033816;28;20057;-71
2021/03/21 06:05:15;;;;;;;34.53;20.00;;;2.40;93.00;;;;;;5012735;28;20068;-73
2021/03/21 06:07:58;;;;;;;35.85;20.23;;;2.40;93.00;;;;;;5030827;28;20113;-73
2021/03/21 06:11:03;;;;;;;38.78;21.42;;;2.40;93.00;;;;;;5029025;28;20439;-71
2021/03/21 06:13:59;;;;;;;29.52;18.90;;;2.40;93.00;;;;;;5023147;28;20029;-73
2021/03/21 06:16:51;;;;;;;37.95;21.48;;;2.40;92.90;;;;;;5012882;28;20068;-73
2021/03/21 06:19:22;;;;;;;37.93;21.80;;;2.50;93.00;;;;;;5031833;28;20053;-71
2021/03/21 06:22:27;;;;;;;35.30;20.75;;;2.50;92.90;;;;;;5029853;28;20029;-71
2021/03/21 06:25:30;;;;;;;32.42;20.08;;;2.50;93.00;;;;;;5013505;28;20022;-71
2021/03/21 06:28:35;;;;;;;38.20;21.05;;;2.60;93.00;;;;;;5023767;28;20148;-71
2021/03/21 06:31:26;;;;;;;34.88;19.92;;;2.60;92.90;;;;;;5020695;28;20026;-71
2021/03/21 06:34:01;;;;;;;36.17;20.88;;;2.70;92.80;;;;;;5030407;28;20035;-73
2021/03/21 06:36:43;;;;;;;37.72;21.60;;;2.70;92.60;;;;;;5016978;28;20072;-73
2021/03/21 06:39:27;;;;;;;39.63;21.75;;;2.70;92.50;;;;;;5012526;28;20025;-73
2021/03/21 06:42:14;;;;;;;36.45;19.45;;;2.80;92.50;;;;;;5031637;28;20057;-73
2021/03/21 06:44:58;;;;;;;31.95;19.65;;;2.90;92.40;;;;;;5023290;28;20065;-73
2021/03/21 06:47:35;;;;;;;32.15;18.13;;;2.90;92.10;;;;;;5014507;28;20033;-71
2021/03/21 06:50:39;;;;;;;38.00;19.85;;;3.00;92.00;;;;;;5032616;28;20512;-71
2021/03/21 06:53:11;;;;;;;34.35;19.23;;;3.00;92.00;;;;;;5024139;28;20389;-73
2021/03/21 06:55:45;;;;;;;29.70;19.58;;;3.00;91.90;;;;;;5026988;28;20075;-73
2021/03/21 06:58:29;;;;;;;34.13;19.60;;;3.00;92.00;;;;;;5032187;28;20025;-71
2021/03/21 07:01:15;;;;;;;30.95;19.45;;;3.10;92.00;;;;;;5030838;28;20033;-71
2021/03/21 07:04:09;;;;;;;33.10;19.40;;;3.20;92.10;;;;;;5023012;28;20057;-72
2021/03/21 07:06:54;;;;;;;32.80;18.85;;;3.30;91.90;;;;;;5029316;28;20025;-73
2021/03/21 07:09:38;;;;;;;33.13;19.17;;;3.30;91.80;;;;;;5028221;28;20151;-73
2021/03/21 07:12:38;;;;;;;34.53;20.25;;;3.40;91.70;;;;;;5029694;28;20028;-73
2021/03/21 07:15:22;;;;;;;33.10;19.10;;;3.40;91.60;;;;;;5006536;28;20098;-71
2021/03/21 07:17:54;;;;;;;33.13;19.30;;;3.40;91.50;;;;;;5028276;28;20034;-71
2021/03/21 07:20:55;;;;;;;34.00;19.65;;;3.40;91.70;;;;;;5028839;28;20031;-73
2021/03/21 07:23:35;;;;;;;34.83;19.27;;;3.50;91.50;;;;;;5009082;28;20527;-73
2021/03/21 07:26:19;;;;;;;30.63;18.23;;;3.60;91.30;;;;;;5028727;28;20476;-73
2021/03/21 07:29:07;;;;;;;28.20;18.65;;;3.70;91.10;;;;;;5030739;28;20036;-71
2021/03/21 07:32:02;;;;;;;30.92;17.77;;;3.90;90.90;;;;;;5029730;28;20022;-73
2021/03/21 07:34:54;;;;;;;31.70;18.58;;;3.90;90.50;;;;;;5032178;28;20030;-71
2021/03/21 07:37:45;;;;;;;25.75;17.35;;;4.30;90.50;;;;;;5026909;28;20029;-71
2021/03/21 07:40:37;;;;;;;20.38;14.02;;;6.70;85.00;;;;;;5031678;28;20026;-72
2021/03/21 07:43:22;;;;;;;18.55;11.75;;;9.80;66.30;;;;;;5032247;28;20075;-71
2021/03/21 07:46:06;;;;;;;21.10;12.60;;;12.10;57.90;;;;;;5014177;28;20093;-71
2021/03/21 07:48:48;;;;;;;19.17;13.38;;;11.10;57.00;;;;;;5028611;28;20029;-73
2021/03/21 07:52:06;;;;;;;19.38;14.05;;;8.60;66.80;;;;;;5031895;28;20095;-74
2021/03/21 07:54:41;;;;;;;23.48;15.48;;;7.00;74.00;;;;;;5011998;28;20037;-74
2021/03/21 07:57:18;;;;;;;27.52;15.95;;;6.30;78.50;;;;;;5035721;28;20576;-71
2021/03/21 07:59:46;;;;;;;21.60;15.90;;;5.90;80.10;;;;;;5033993;28;20026;-71
2021/03/21 08:02:21;;;;;;;22.83;16.27;;;6.00;81.10;;;;;;5036127;28;20022;-71
2021/03/21 08:04:47;;;;;;;25.55;16.05;;;6.10;81.50;;;;;;5022787;28;20026;-72
2021/03/21 08:07:29;;;;;;;20.75;16.23;;;6.40;80.70;;;;;;5030158;28;20060;-72
2021/03/21 08:09:56;;;;;;;17.83;14.05;;;7.50;77.40;;;;;;5035477;28;20025;-74
2021/03/21 08:12:22;;;;;;;17.20;12.05;;;11.20;62.30;;;;;;5032267;28;20558;-72
2021/03/21 08:14:50;;;;;;;16.77;11.68;;;13.70;53.20;;;;;;5024423;28;20037;-73
2021/03/21 08:17:21;;;;;;;15.52;11.98;;;15.50;47.90;;;;;;5030218;28;20414;-75
2021/03/21 08:19:51;;;;;;;15.75;11.30;;;16.80;43.90;;;;;;5031288;28;20030;-73
2021/03/21 08:22:23;;;;;;;13.63;10.90;;;16.90;42.30;;;;;;5029598;28;20033;-75
2021/03/21 08:24:52;;;;;;;12.40;10.23;;;17.20;42.00;;;;;;5029563;28;20117;-73
2021/03/21 08:27:28;;;;;;;12.55;10.52;;;17.50;41.60;;;;;;5034312;28;20488;-73
2021/03/21 08:29:59;;;;;;;12.23;10.60;;;17.50;40.60;;;;;;5034368;28;20075;-73
2021/03/21 08:32:27;;;;;;;12.93;10.65;;;15.80;44.30;;;;;;5035380;28;20026;-73
2021/03/21 08:34:53;;;;;;;12.55;11.25;;;13.60;50.20;;;;;;5034156;28;20068;-73
2021/03/21 08:37:46;;;;;;;14.48;11.35;;;13.20;55.50;;;;;;5025919;28;20049;-73
2021/03/21 08:40:18;;;;;;;12.02;10.70;;;15.70;47.00;;;;;;5034909;28;20037;-73
2021/03/21 08:42:45;;;;;;;12.15;10.18;;;17.40;43.40;;;;;;5035110;28;20056;-76
2021/03/21 08:45:27;;;;;;;12.48;10.40;;;18.60;41.70;;;;;;5022490;28;20461;-73
2021/03/21 08:48:00;;;;;;;12.18;10.25;;;19.60;38.30;;;;;;5027580;28;20120;-73
2021/03/21 08:50:35;;;;;;;11.32;10.15;;;19.50;38.20;;;;;;5013882;28;20021;-73
2021/03/21 08:53:01;;;;;;;11.63;10.00;;;19.50;39.80;;;;;;5026087;28;20029;-73
2021/03/21 08:55:32;;;;;;;11.23;10.10;;;19.90;38.30;;;;;;5020146;28;20452;-73
2021/03/21 08:58:00;;;;;;;11.40;10.30;;;20.00;37.80;;;;;;5031424;28;20053;-76
2021/03/21 09:00:29;;;;;;;11.82;10.57;;;19.90;37.50;;;;;;5033686;28;20052;-73
2021/03/21 09:02:55;;;;;;;11.02;9.90;;;19.90;37.20;;;;;;5026599;28;20102;-76
2021/03/21 09:05:22;;;;;;;11.00;9.90;;;20.30;37.60;;;;;;5026782;28;20061;-77
2021/03/21 09:07:51;;;;;;;11.68;9.60;;;21.00;37.10;;;;;;5030596;28;20519;-76
2021/03/21 09:10:32;;;;;;;11.65;10.45;;;22.40;34.40;;;;;;5033844;28;20018;-74
2021/03/21 09:13:06;;;;;;;11.75;10.55;;;22.20;32.60;;;;;;5031245;28;20112;-76
2021/03/21 09:15:38;;;;;;;11.50;10.32;;;21.60;34.20;;;;;;5018461;28;20029;-77
2021/03/21 09:18:15;;;;;;;11.00;9.88;;;21.20;35.80;;;;;;5024298;28;20025;-77
2021/03/21 09:21:02;;;;;;;10.77;9.77;;;21.70;35.90;;;;;;5034593;28;20440;-77
2021/03/21 09:23:33;;;;;;;11.80;10.60;;;22.30;35.20;;;;;;5007780;28;20046;-74
2021/03/21 09:26:01;;;;;;;11.13;10.02;;;22.20;33.00;;;;;;5029628;28;20111;-73
2021/03/21 09:28:34;;;;;;;11.75;10.40;;;22.80;34.30;;;;;;5034023;28;20021;-74
2021/03/21 09:31:09;;;;;;;11.65;10.50;;;23.20;32.80;;;;;;5013334;28;20021;-73
2021/03/21 09:33:45;;;;;;;10.18;9.18;;;22.60;32.80;;;;;;5033012;28;20484;-73
2021/03/21 09:36:22;;;;;;;10.90;9.93;;;22.60;34.10;;;;;;5034086;28;20021;-77
2021/03/21 09:38:54;;;;;;;9.63;8.70;;;22.40;34.70;;;;;;5033894;28;20033;-74
2021/03/21 09:41:20;;;;;;;10.10;8.48;;;22.90;32.10;;;;;;5034010;28;20021;-74
2021/03/21 09:43:49;;;;;;;10.73;9.65;;;21.40;33.00;;;;;;5031738;28;20112;-74
2021/03/21 09:46:23;;;;;;;11.32;9.85;;;19.10;38.40;;;;;;5015417;28;20038;-77
2021/03/21 09:48:51;;;;;;;11.43;10.23;;;18.30;42.20;;;;;;5034064;28;20106;-76
2021/03/21 09:51:41;;;;;;;11.85;10.65;;;17.70;44.10;;;;;;5033684;28;20018;-73
2021/03/21 09:54:25;;;;;;;12.43;10.05;;;15.70;47.40;;;;;;5020774;28;20033;-76
2021/03/21 09:57:15;;;;;;;12.10;9.85;;;14.80;49.80;;;;;;5022747;28;20025;-76
2021/03/21 09:59:49;;;;;;;13.43;10.88;;;13.90;52.50;;;;;;5033750;28;20500;-75
2021/03/21 10:02:25;;;;;;;10.63;9.52;;;13.50;55.40;;;;;;5022815;28;20480;-73
2021/03/21 10:04:58;;;;;;;11.65;9.93;;;13.00;56.00;;;;;;5021615;28;20397;-73
2021/03/21 10:07:34;;;;;;;14.52;10.15;;;12.60;57.80;;;;;;5031999;28;20112;-73
2021/03/21 10:10:04;;;;;;;16.75;9.75;;;12.30;58.40;;;;;;5031422;28;20025;-73
2021/03/21 10:12:31;;;;;;;14.75;10.40;;;12.20;59.10;;;;;;5030948;28;20038;-73
2021/03/21 10:15:18;;;;;;;13.02;10.27;;;12.10;59.30;;;;;;5023943;28;20069;-75
2021/03/21 10:17:47;;;;;;;16.20;11.10;;;12.00;60.60;;;;;;5029900;28;20092;-73
2021/03/21 10:20:15;;;;;;;14.50;10.50;;;11.80;61.30;;;;;;5033307;28;20108;-75
2021/03/21 10:22:41;;;;;;;15.05;10.95;;;11.60;61.60;;;;;;5029234;28;20066;-75
2021/03/21 10:25:09;;;;;;;16.75;12.00;;;11.60;61.90;;;;;;5032618;28;20025;-75
2021/03/21 10:27:45;;;;;;;16.67;11.15;;;11.40;62.90;;;;;;5022755;28;20100;-73
2021/03/21 10:30:23;;;;;;;16.55;11.20;;;11.30;62.40;;;;;;5033249;28;20033;-75
2021/03/21 10:33:17;;;;;;;15.10;10.68;;;11.40;63.70;;;;;;5032923;28;20445;-74
2021/03/21 10:35:49;;;;;;;16.00;11.32;;;11.60;61.80;;;;;;5032827;28;20026;-75
2021/03/21 10:38:55;;;;;;;14.00;10.93;;;11.50;60.80;;;;;;5032324;28;20036;-73
2021/03/21 10:42:00;;;;;;;13.55;10.35;;;11.40;62.10;;;;;;4971887;28;20042;-73
2021/03/21 10:44:32;;;;;;;13.52;10.55;;;11.50;62.20;;;;;;4964741;28;20059;-72
2021/03/21 10:47:22;;;;;;;13.10;10.52;;;11.40;62.40;;;;;;4951994;28;20453;-74
2021/03/21 10:50:03;;;;;;;18.33;11.68;;;11.40;63.00;;;;;;4955543;28;20046;-73
2021/03/21 10:52:34;;;;;;;14.45;10.85;;;11.50;62.30;;;;;;4963968;28;20045;-75
2021/03/21 10:55:15;;;;;;;12.15;10.38;;;11.40;62.60;;;;;;4971669;28;20061;-75
2021/03/21 10:57:51;;;;;;;16.95;11.10;;;11.40;64.00;;;;;;4969164;28;20030;-75
2021/03/21 11:00:23;;;;;;;14.65;10.05;;;11.60;63.00;;;;;;4971733;28;20039;-75
2021/03/21 11:02:59;;;;;;;16.43;12.00;;;11.70;63.90;;;;;;4968492;28;20033;-73
2021/03/21 11:05:39;;;;;;;14.52;11.23;;;11.50;61.60;;;;;;4964694;28;20102;-75
2021/03/21 11:08:18;;;;;;;22.02;11.55;;;11.60;64.40;;;;;;4970298;28;20026;-73
2021/03/21 11:10:52;;;;;;;17.20;11.30;;;11.50;63.10;;;;;;4945618;28;20039;-74
2021/03/21 11:13:33;;;;;;;13.73;10.38;;;11.70;64.90;;;;;;5020090;28;20034;-72
2021/03/21 11:16:07;;;;;;;15.30;9.45;;;11.70;64.10;;;;;;5016114;28;20030;-74
2021/03/21 11:18:34;;;;;;;16.13;9.35;;;11.70;62.10;;;;;;5032295;28;20018;-72
2021/03/21 11:21:06;;;;;;;12.98;9.13;;;11.50;62.10;;;;;;5032438;28;20507;-72
2021/03/21 11:23:45;;;;;;;14.60;9.18;;;11.40;62.60;;;;;;5015580;28;20022;-72
2021/03/21 11:26:22;;;;;;;15.10;9.45;;;11.00;63.30;;;;;;5019113;28;20370;-73
2021/03/21 11:28:48;;;;;;;12.52;9.65;;;11.20;65.00;;;;;;5029106;28;20048;-73
2021/03/21 11:31:30;;;;;;;14.60;10.38;;;11.20;64.80;;;;;;5032327;28;20026;-72
2021/03/21 11:33:55;;;;;;;13.15;9.95;;;11.30;64.60;;;;;;5027702;28;20021;-73
2021/03/21 11:36:27;;;;;;;15.65;11.15;;;11.10;65.80;;;;;;5031446;28;20087;-74
2021/03/21 11:38:53;;;;;;;15.93;10.65;;;11.10;64.60;;;;;;5032033;28;20424;-74
2021/03/21 11:41:38;;;;;;;18.40;10.95;;;11.00;64.30;;;;;;5032010;28;20060;-72
2021/03/21 11:44:19;;;;;;;19.40;11.00;;;10.90;65.40;;;;;;5026361;28;20058;-74
2021/03/21 11:46:46;;;;;;;14.38;11.38;;;10.90;65.50;;;;;;5016393;28;20045;-74
2021/03/21 11:49:12;;;;;;;17.45;11.18;;;10.90;65.80;;;;;;5027878;28;20033;-74
2021/03/21 11:51:40;;;;;;;14.23;10.60;;;10.90;66.00;;;;;;5031921;28;20033;-74
2021/03/21 11:54:07;;;;;;;18.40;11.60;;;11.00;65.80;;;;;;5020359;28;20040;-72
2021/03/21 11:56:45;;;;;;;17.88;11.65;;;11.10;65.80;;;;;;5031737;28;20023;-73
2021/03/21 11:59:16;;;;;;;15.90;12.02;;;11.10;66.90;;;;;;5031955;28;20056;-75
2021/03/21 12:01:47;;;;;;;16.55;11.75;;;11.20;66.10;;;;;;5032010;28;20029;-72
2021/03/21 12:04:34;;;;;;;18.45;12.43;;;11.30;65.70;;;;;;5020674;28;20021;-72
2021/03/21 12:07:00;;;;;;;15.75;11.23;;;11.30;64.70;;;;;;5029759;28;20028;-73
2021/03/21 12:09:31;;;;;;;18.95;13.07;;;11.10;65.50;;;;;;5030569;28;20092;-72
2021/03/21 12:12:00;;;;;;;19.23;12.77;;;11.00;65.10;;;;;;5029338;28;20061;-74
2021/03/21 12:14:32;;;;;;;18.13;13.05;;;11.30;66.60;;;;;;5023231;28;20013;-72
2021/03/21 12:17:00;;;;;;;16.65;12.15;;;11.40;65.30;;;;;;5026215;28;20040;-74
2021/03/21 12:19:44;;;;;;;16.27;11.90;;;11.60;63.60;;;;;;5031799;28;20117;-72
2021/03/21 12:22:18;;;;;;;15.88;11.75;;;11.80;64.40;;;;;;5028065;28;20488;-74
2021/03/21 12:24:52;;;;;;;14.88;11.70;;;11.90;64.50;;;;;;5031188;28;20032;-72
2021/03/21 12:27:31;;;;;;;18.20;12.43;;;11.90;64.50;;;;;;5021100;28;20413;-72
2021/03/21 12:30:01;;;;;;;15.48;11.82;;;11.70;61.90;;;;;;5031634;28;20053;-74
2021/03/21 12:33:10;;;;;;;17.08;11.93;;;11.60;63.60;;;;;;5031820;28;20097;-75
2021/03/21 12:35:40;;;;;;;17.52;12.45;;;11.60;64.50;;;;;;5031789;28;20029;-74
2021/03/21 12:38:11;;;;;;;16.23;12.23;;;11.80;64.40;;;;;;5029949;28;20068;-73
2021/03/21 12:40:43;;;;;;;16.25;12.25;;;11.60;63.20;;;;;;5033776;28;20132;-72
2021/03/21 12:43:31;;;;;;;19.42;12.73;;;11.50;64.20;;;;;;5025387;28;20052;-75
2021/03/21 12:46:05;;;;;;;19.48;13.15;;;11.50;65.90;;;;;;5010706;28;20057;-74
2021/03/21 12:48:45;;;;;;;18.33;12.07;;;11.70;65.70;;;;;;5028098;28;20136;-74
2021/03/21 12:51:35;;;;;;;19.00;11.85;;;11.40;63.10;;;;;;5032053;28;20377;-72
2021/03/21 12:54:02;;;;;;;20.88;12.07;;;11.70;64.70;;;;;;5021150;28;20033;-72
2021/03/21 12:56:28;;;;;;;18.33;11.98;;;11.40;63.80;;;;;;5034373;28;20040;-72
2021/03/21 12:58:54;;;;;;;17.10;11.95;;;11.50;65.50;;;;;;5034566;28;20021;-72
2021/03/21 13:01:20;;;;;;;14.05;10.05;;;11.60;65.40;;;;;;5034289;28;20443;-74
2021/03/21 13:03:46;;;;;;;20.27;10.90;;;11.40;63.20;;;;;;5018283;28;20118;-73
2021/03/21 13:06:12;;;;;;;16.25;10.82;;;11.30;64.50;;;;;;5031597;28;20100;-74
2021/03/21 13:08:38;;;;;;;13.13;10.10;;;11.30;64.70;;;;;;5034512;28;20536;-74
2021/03/21 13:11:06;;;;;;;14.82;10.43;;;11.20;64.80;;;;;;5032020;28;20113;-74
2021/03/21 13:13:34;;;;;;;14.38;10.27;;;11.30;66.00;;;;;;5032062;28;20084;-74
2021/03/21 13:16:00;;;;;;;15.25;10.63;;;11.20;64.80;;;;;;5021415;28;20136;-72
2021/03/21 13:18:25;;;;;;;17.13;10.45;;;11.70;65.10;;;;;;5033322;28;20029;-74
2021/03/21 13:20:56;;;;;;;14.25;10.95;;;11.70;62.60;;;;;;5034485;28;20087;-72
2021/03/21 13:23:22;;;;;;;17.40;10.98;;;11.70;63.60;;;;;;5029843;28;20492;-73